createdAt,value
2023-10-10T00:00:39.561Z,105356.00
2023-10-10T00:06:42.230Z,105359.00
2023-10-10T00:12:44.783Z,105356.00
2023-10-10T00:18:47.590Z,105356.00
2023-10-10T00:24:49.725Z,105357.00
2023-10-10T00:30:52.011Z,105359.00
2023-10-10T00:36:54.365Z,105359.00
2023-10-10T00:42:56.630Z,105356.00
2023-10-10T00:49:01.767Z,105357.00
2023-10-10T00:55:06.096Z,105359.00
2023-10-10T01:01:15.480Z,105358.00
2023-10-10T01:07:20.785Z,105357.00
2023-10-10T01:13:23.104Z,105359.00
2023-10-10T01:19:30.072Z,105356.00
2023-10-10T01:25:35.406Z,105359.00
2023-10-10T01:31:38.518Z,105359.00
2023-10-10T01:37:42.755Z,105359.00
2023-10-10T01:43:47.902Z,105359.00
2023-10-10T01:49:50.119Z,105358.00
2023-10-10T01:55:52.374Z,105352.00
2023-10-10T02:01:55.900Z,105357.00
2023-10-10T02:07:59.070Z,105356.00
2023-10-10T02:14:01.517Z,105356.00
2023-10-10T02:20:22.547Z,105359.00
2023-10-10T02:26:37.225Z,105359.00
2023-10-10T02:32:40.412Z,105359.00
2023-10-10T02:38:55.348Z,105356.00
2023-10-10T02:45:00.367Z,105353.00
2023-10-10T02:51:05.326Z,105355.00
2023-10-10T02:57:27.074Z,105358.00
2023-10-10T03:03:29.533Z,105360.00
2023-10-10T03:09:51.096Z,105359.00
2023-10-10T03:15:56.645Z,105360.00
2023-10-10T03:22:20.379Z,105359.00
2023-10-10T03:28:26.421Z,105359.00
2023-10-10T03:34:44.917Z,105354.00
2023-10-10T03:40:56.345Z,105357.00
2023-10-10T03:47:01.897Z,105356.00
2023-10-10T03:53:27.154Z,105354.00
2023-10-10T03:59:48.607Z,105359.00
2023-10-10T04:06:09.434Z,105361.00
2023-10-10T04:12:30.399Z,105359.00
2023-10-10T04:18:50.916Z,105361.00
2023-10-10T04:25:11.569Z,105360.00
2023-10-10T04:31:32.550Z,105360.00
2023-10-10T04:37:53.275Z,105357.00
2023-10-10T04:44:14.561Z,105359.00
2023-10-10T04:50:35.803Z,105358.00
2023-10-10T04:56:56.706Z,105359.00
2023-10-10T05:03:17.865Z,105361.00
2023-10-10T05:09:39.038Z,105363.00
2023-10-10T05:16:00.114Z,105354.00
2023-10-10T05:22:21.021Z,105359.00
2023-10-10T05:28:23.923Z,105361.00
2023-10-10T05:34:26.677Z,105359.00
2023-10-10T05:40:29.648Z,105359.00
2023-10-10T05:46:32.163Z,105367.00
2023-10-10T05:52:34.955Z,105364.00
2023-10-10T05:58:37.094Z,105368.00
2023-10-10T06:04:41.393Z,105370.00
2023-10-10T06:10:43.987Z,105368.00
2023-10-10T06:16:46.307Z,105362.00
2023-10-10T06:22:51.969Z,105362.00
2023-10-10T06:28:58.706Z,105380.00
2023-10-10T06:35:29.372Z,105380.00
2023-10-10T06:41:40.652Z,105382.00
2023-10-10T06:47:46.501Z,105382.00
2023-10-10T06:53:48.670Z,105383.00
2023-10-10T06:59:52.517Z,105383.00
2023-10-10T07:05:54.838Z,105385.00
2023-10-10T07:11:58.360Z,105387.00
2023-10-10T07:18:10.428Z,105382.00
2023-10-10T07:24:16.651Z,105382.00
2023-10-10T07:30:20.184Z,105385.00
2023-10-10T07:36:26.403Z,105385.00
2023-10-10T07:42:29.232Z,105383.00
2023-10-10T07:48:31.739Z,105386.00
2023-10-10T07:54:46.512Z,105385.00
2023-10-10T08:00:48.900Z,105383.00
2023-10-10T08:06:51.080Z,105387.00
2023-10-10T08:12:53.901Z,105386.00
2023-10-10T08:18:57.225Z,105387.00
2023-10-10T08:24:59.415Z,105383.00
2023-10-10T08:31:01.641Z,105381.00
2023-10-10T08:37:06.927Z,105381.00
2023-10-10T08:43:09.298Z,105374.00
2023-10-10T08:49:11.764Z,105370.00
2023-10-10T08:55:15.869Z,105374.00
2023-10-10T09:01:18.108Z,105376.00
2023-10-10T09:07:28.904Z,105370.00
2023-10-10T09:13:33.479Z,105364.00
2023-10-10T09:19:38.483Z,105369.00
2023-10-10T09:25:44.068Z,105372.00
2023-10-10T09:32:00.591Z,105371.00
2023-10-10T09:38:05.661Z,105369.00
2023-10-10T09:44:24.225Z,105365.00
2023-10-10T09:50:26.882Z,105366.00
2023-10-10T09:56:30.950Z,105370.00
2023-10-10T10:02:44.424Z,105369.00
2023-10-10T10:09:03.059Z,105367.00
2023-10-10T10:15:14.357Z,105364.00
2023-10-10T10:21:21.392Z,105368.00
2023-10-10T10:27:33.282Z,105368.00
2023-10-10T10:33:37.946Z,105363.00
2023-10-10T10:39:47.945Z,105368.00
2023-10-10T10:45:53.378Z,105365.00
2023-10-10T10:52:15.817Z,105371.00
2023-10-10T10:58:21.152Z,105372.00
2023-10-10T11:04:41.280Z,105371.00
2023-10-10T11:10:47.903Z,105373.00
2023-10-10T11:16:58.017Z,105380.00
2023-10-10T11:23:13.709Z,105381.00
2023-10-10T11:29:31.538Z,105382.00
2023-10-10T11:35:34.174Z,105379.00
2023-10-10T11:41:37.291Z,105381.00
2023-10-10T11:47:46.365Z,105379.00
2023-10-10T11:53:49.110Z,105376.00
2023-10-10T11:59:51.437Z,105374.00
2023-10-10T12:05:53.801Z,105374.00
2023-10-10T12:12:00.869Z,105365.00
2023-10-10T12:18:04.733Z,105372.00
2023-10-10T12:24:08.142Z,105374.00
2023-10-10T12:30:14.580Z,105367.00
2023-10-10T12:36:17.395Z,105368.00
2023-10-10T12:42:20.017Z,105371.00
2023-10-10T12:48:22.780Z,105367.00
2023-10-10T12:54:36.444Z,105365.00
2023-10-10T13:00:39.386Z,105365.00
2023-10-10T13:06:41.812Z,105369.00
2023-10-10T13:12:53.228Z,105369.00
2023-10-10T13:18:58.786Z,105361.00
2023-10-10T13:25:00.991Z,105368.00
2023-10-10T13:31:03.903Z,105369.00
2023-10-10T13:37:09.271Z,105369.00
2023-10-10T13:43:14.361Z,105364.00
2023-10-10T13:49:16.956Z,105366.00
2023-10-10T13:55:20.267Z,105368.00
2023-10-10T14:01:33.217Z,105366.00
2023-10-10T14:07:35.474Z,105367.00
2023-10-10T14:13:37.750Z,105360.00
2023-10-10T14:19:40.179Z,105367.00
2023-10-10T14:25:47.482Z,105362.00
2023-10-10T14:31:49.781Z,105370.00
2023-10-10T14:38:02.186Z,105363.00
2023-10-10T14:44:07.692Z,105366.00
2023-10-10T14:50:12.525Z,105364.00
2023-10-10T14:56:21.210Z,105363.00
2023-10-10T15:02:27.979Z,105365.00
2023-10-10T15:08:30.720Z,105369.00
2023-10-10T15:14:34.023Z,105366.00
2023-10-10T15:20:37.766Z,105364.00
2023-10-10T15:26:41.113Z,105366.00
2023-10-10T15:32:49.709Z,105361.00
2023-10-10T15:38:52.154Z,105360.00
2023-10-10T15:44:54.442Z,105360.00
2023-10-10T15:50:59.428Z,105365.00
2023-10-10T15:57:05.714Z,105363.00
2023-10-10T16:03:08.591Z,105359.00
2023-10-10T16:09:21.678Z,105367.00
2023-10-10T16:15:30.744Z,105368.00
2023-10-10T16:21:33.283Z,105366.00
2023-10-10T16:27:35.531Z,105365.00
2023-10-10T16:33:41.840Z,105361.00
2023-10-10T16:39:48.049Z,105364.00
2023-10-10T16:45:50.976Z,105366.00
2023-10-10T16:51:55.836Z,105362.00
2023-10-10T16:57:59.179Z,105363.00
2023-10-10T17:04:02.031Z,105365.00
2023-10-10T17:10:10.052Z,105359.00
2023-10-10T17:16:13.654Z,105361.00
2023-10-10T17:22:18.517Z,105360.00
2023-10-10T17:28:20.864Z,105363.00
2023-10-10T17:34:29.444Z,105363.00
2023-10-10T17:40:41.274Z,105361.00
2023-10-10T17:46:47.296Z,105363.00
2023-10-10T17:52:49.526Z,105361.00
2023-10-10T17:58:52.058Z,105359.00
2023-10-10T18:04:54.866Z,105363.00
2023-10-10T18:11:04.339Z,105364.00
2023-10-10T18:17:06.857Z,105359.00
2023-10-10T18:23:09.414Z,105359.00
2023-10-10T18:29:11.780Z,105360.00
2023-10-10T18:35:15.215Z,105361.00
2023-10-10T18:41:24.370Z,105362.00
2023-10-10T18:47:26.853Z,105358.00
2023-10-10T18:53:29.178Z,105362.00
2023-10-10T18:59:33.366Z,105362.00
2023-10-10T19:05:35.995Z,105361.00
2023-10-10T19:11:38.499Z,105358.00
2023-10-10T19:17:44.406Z,105359.00
2023-10-10T19:23:51.612Z,105360.00
2023-10-10T19:29:56.537Z,105358.00
2023-10-10T19:35:58.876Z,105359.00
2023-10-10T19:42:05.548Z,105360.00
2023-10-10T19:48:08.659Z,105359.00
2023-10-10T19:54:14.178Z,105357.00
2023-10-10T20:00:22.691Z,105363.00
2023-10-10T20:06:24.865Z,105360.00
2023-10-10T20:12:27.405Z,105360.00
2023-10-10T20:18:29.941Z,105358.00
2023-10-10T20:24:32.365Z,105357.00
2023-10-10T20:30:36.755Z,105359.00
2023-10-10T20:36:39.003Z,105359.00
2023-10-10T20:42:44.130Z,105357.00
2023-10-10T20:48:49.478Z,105361.00
2023-10-10T20:54:51.990Z,105362.00
2023-10-10T21:00:54.507Z,105359.00
2023-10-10T21:06:56.912Z,105358.00
2023-10-10T21:12:59.562Z,105358.00
2023-10-10T21:19:01.811Z,105355.00
2023-10-10T21:25:04.045Z,105361.00
2023-10-10T21:31:09.872Z,105366.00
2023-10-10T21:37:14.733Z,105356.00
2023-10-10T21:43:17.098Z,105359.00
2023-10-10T21:49:19.555Z,105357.00
2023-10-10T21:55:22.353Z,105353.00
2023-10-10T22:01:26.105Z,105354.00
2023-10-10T22:07:31.748Z,105358.00
2023-10-10T22:13:38.043Z,105362.00
2023-10-10T22:19:41.900Z,105356.00
2023-10-10T22:25:44.262Z,105360.00
2023-10-10T22:31:47.733Z,105356.00
2023-10-10T22:37:51.754Z,105359.00
2023-10-10T22:43:54.309Z,105357.00
2023-10-10T22:49:56.528Z,105362.00
2023-10-10T22:55:58.775Z,105359.00
2023-10-10T23:02:01.083Z,105357.00
2023-10-10T23:08:03.389Z,105357.00
2023-10-10T23:14:06.474Z,105355.00
2023-10-10T23:20:14.969Z,105356.00
2023-10-10T23:26:43.377Z,105357.00
2023-10-10T23:39:20.702Z,105357.00
2023-10-10T23:45:26.712Z,105353.00
2023-10-10T23:51:29.007Z,105354.00
2023-10-10T23:57:34.743Z,105355.00
